createdAt,value
2022-11-05T07:19:32.336Z,8.76
2022-11-05T07:21:53.229Z,9.54
2022-11-05T07:24:40.879Z,9.56
2022-11-05T07:27:36.034Z,9.70
2022-11-05T07:30:22.917Z,9.93
2022-11-05T07:33:12.850Z,10.87
2022-11-05T07:36:02.292Z,11.73
2022-11-05T07:38:57.402Z,12.09
2022-11-05T07:42:49.541Z,12.47
2022-11-05T07:45:07.189Z,13.02
2022-11-05T07:47:58.827Z,13.36
2022-11-05T07:50:47.313Z,13.35
2022-11-05T07:53:32.897Z,13.09
2022-11-05T07:56:19.459Z,13.74
2022-11-05T07:59:29.184Z,14.28
2022-11-05T11:50:05.398Z,25.69
2022-11-05T11:55:22.726Z,24.32
2022-11-05T12:05:27.816Z,28.97
2022-11-05T12:09:05.406Z,24.61
2022-11-05T12:11:38.190Z,24.65
2022-11-05T12:14:46.188Z,22.35
2022-11-05T12:18:10.739Z,23.83
2022-11-05T12:21:34.642Z,24.36
2022-11-05T12:26:26.267Z,26.96
2022-11-05T12:28:28.639Z,24.38
2022-11-05T12:32:44.570Z,25.65
2022-11-05T12:36:02.481Z,26.91
2022-11-05T12:39:47.987Z,23.71
2022-11-05T12:43:00.518Z,20.54
2022-11-05T12:46:03.562Z,22.87
2022-11-05T12:49:03.858Z,24.27
2022-11-05T12:52:18.294Z,24.60
2022-11-05T12:55:11.077Z,24.34
2022-11-05T12:58:04.580Z,23.94
2022-11-05T13:00:57.883Z,25.52
2022-11-05T13:03:54.287Z,28.06
2022-11-05T13:07:17.250Z,22.74
2022-11-05T13:10:27.504Z,19.77
2022-11-05T13:14:30.212Z,19.91
2022-11-05T13:16:55.901Z,23.22
2022-11-05T13:19:51.450Z,25.00
2022-11-05T13:23:30.086Z,26.78
2022-11-05T13:30:38.244Z,27.55
2022-11-05T13:37:54.138Z,23.70
2022-11-05T13:41:29.679Z,24.72
2022-11-05T13:45:00.326Z,24.74
2022-11-05T13:47:59.763Z,20.14
2022-11-05T13:50:59.525Z,18.53
2022-11-05T13:54:01.707Z,16.94
2022-11-05T13:56:51.065Z,16.27
2022-11-05T13:59:54.422Z,16.71
2022-11-05T14:02:49.054Z,16.06
2022-11-05T14:05:40.181Z,15.45
2022-11-05T14:08:33.483Z,15.03
2022-11-05T14:11:34.662Z,14.97
2022-11-05T14:14:28.280Z,14.66
2022-11-05T14:17:29.845Z,15.08
2022-11-05T14:20:26.934Z,14.81
2022-11-05T14:23:24.460Z,14.60
2022-11-05T14:26:34.316Z,14.17
2022-11-05T14:29:24.481Z,14.14
2022-11-05T14:32:23.707Z,14.15
2022-11-05T14:35:17.924Z,13.57
2022-11-05T14:38:06.165Z,13.24
2022-11-05T14:41:04.308Z,13.39
2022-11-05T14:44:01.343Z,13.35
2022-11-05T14:46:50.404Z,12.66
2022-11-05T14:49:54.041Z,12.62
2022-11-05T14:52:50.089Z,12.71
2022-11-05T14:55:42.546Z,12.38
2022-11-05T14:58:32.104Z,12.45
2022-11-05T15:01:42.759Z,12.41
2022-11-05T15:04:29.949Z,12.07
2022-11-05T15:07:24.256Z,12.05
2022-11-05T15:10:15.957Z,11.83
2022-11-05T15:13:06.287Z,11.72
2022-11-05T15:15:52.817Z,11.36
2022-11-05T15:18:45.343Z,11.40
2022-11-05T15:21:36.237Z,10.94
2022-11-05T15:24:23.050Z,11.03
2022-11-05T15:27:21.997Z,10.84
2022-11-05T15:30:20.612Z,10.56
2022-11-05T15:33:22.240Z,10.50
2022-11-05T15:36:11.000Z,10.87
2022-11-05T15:39:27.528Z,10.70
2022-11-05T15:42:11.723Z,10.58
2022-11-05T15:45:03.649Z,10.59
2022-11-05T15:47:53.042Z,10.25
2022-11-05T15:50:38.993Z,10.29
2022-11-05T15:53:56.553Z,10.45
2022-11-05T15:56:53.223Z,10.21
2022-11-05T15:59:39.207Z,9.90
2022-11-05T16:02:33.539Z,9.77
2022-11-05T16:05:19.447Z,9.76
2022-11-05T16:08:05.577Z,9.99
2022-11-05T16:10:54.415Z,9.45
2022-11-05T16:13:41.749Z,9.66
2022-11-05T16:16:34.325Z,9.76
2022-11-05T16:19:42.029Z,9.77
2022-11-05T16:22:44.880Z,9.54
2022-11-05T16:25:37.061Z,9.83
2022-11-05T16:28:26.590Z,9.58
